Mustang, Oklahoma
Current Conditions -  °F | °C
As of 10:52 AM on Wednesday 22 Oct 2014 (Local Time) from KOKC Reporting Station
Clear Clear  
Wind Chill: 71°   Ceiling: Unl
Heat Index: 71°   Visibility: 10mi
Dew Point: 60°   Wind: 13mph
Humidity: 68%   Direction: 180°S
Pressure: 30.17"   Gusts: NA
Location:  35.39°N, 97.73°W
Report Text: KOKC 221552Z 18011KT 10SM CLR 22/16 A3017 RMK AO2 SLP208 T02170156
Loading
Personal Weather Stations






























Interactive Weather Map
Tropical Storm Tracking
New forecast layout! Learn more

10-Day Weather Forecast

Advertisements
Track Severe Weather on mobile